ADDS METAR Data INFO
IDs: Format: Raw Decoded Include TAF

Data at: 0933 UTC 17 Oct 2017

KESF 170853Z AUTO 00000KT 10SM CLR 09/06 A3022 RMK AO2 SLP232 T00890061 57009 $
KESF 170753Z AUTO 01003KT 10SM CLR 08/07 A3023 RMK AO2 SLP235 T00830067 $
KESF 170653Z AUTO 00000KT 10SM CLR 08/06 A3024 RMK AO2 SLP238 T00830061 $
KESF 170553Z AUTO 00000KT 10SM CLR 11/07 A3025 RMK AO2 SLP241 T01060067 10183 20106 402330106 58002 $
KESF 170453Z AUTO 00000KT 10SM CLR 12/06 A3025 RMK AO2 SLP242 T01220061 $
KESF 170353Z AUTO 00000KT 10SM CLR 12/07 A3025 RMK AO2 SLP243 T01220067 $
KESF 170253Z AUTO 00000KT 10SM CLR 14/06 A3025 RMK AO2 SLP243 T01440061 51016 $
KESF 170153Z AUTO 36003KT 10SM CLR 16/06 A3024 RMK AO2 SLP240 T01560056 $
KESF 170053Z AUTO 36004KT 10SM CLR 17/06 A3022 RMK AO2 SLP233 T01670056 $
KESF 162353Z AUTO 00000KT 10SM CLR 18/05 A3020 RMK AO2 SLP226 T01830050 10233 20183 53010 $
KESF 162253Z AUTO 10SM CLR 21/05 A3018 RMK AO2 SLP219 T02110050 $
KESF 162153Z AUTO 03007KT 320V090 10SM CLR 23/05 A3017 RMK AO2 SLP215 T02280050 $
KESF 162053Z AUTO 02009G19KT 340V060 10SM CLR 23/06 A3017 RMK AO2 SLP216 T02280056 56024 $
KESF 161953Z AUTO 04008G15KT 350V070 10SM CLR 23/06 A3018 RMK AO2 SLP217 T02280056 $
KESF 161853Z AUTO 02009G19KT 10SM CLR 22/07 A3021 RMK AO2 SLP230 T02220072 $
KESF 161753Z AUTO 03009G15KT 010V070 10SM CLR 22/08 A3024 RMK AO2 SLP240 T02220078 10222 20133 58021 $
KESF 161653Z AUTO 02007G16KT 350V070 10SM CLR 21/08 A3027 RMK AO2 SLP250 T02060078 $
KESF 161553Z AUTO 07009G14KT 10SM CLR 19/08 A3029 RMK AO2 SLP257 T01890083 $
KESF 161453Z AUTO 06009G15KT 030V100 10SM CLR 17/09 A3031 RMK AO2 SLP261 T01720089 51023 $
KESF 161353Z AUTO 05011G18KT 10SM CLR 15/09 A3029 RMK AO2 SLP255 T01500094 $
KESF 161253Z AUTO VRB06KT 10SM CLR 14/10 A3026 RMK AO2 SLP247 T01390100 $
KESF 161153Z AUTO 04006KT 10SM CLR 14/10 A3024 RMK AO2 SLP238 T01390100 10183 20139 53016 $
KESF 161053Z AUTO 03007KT 350V070 10SM CLR 15/11 A3021 RMK AO2 SLP229 T01500106 $
KESF 160953Z AUTO VRB06KT 10SM CLR 16/11 A3019 RMK AO2 SLP223 T01560111 $
KESF 160853Z AUTO 02007KT 360V060 10SM CLR 17/12 A3019 RMK AO2 SLP221 T01670117 56006 $
KESF 160753Z AUTO 05007KT 020V080 10SM CLR 17/13 A3019 RMK AO2 SLP221 T01720128 $
KESF 160653Z AUTO VRB04KT 10SM BKN085 18/13 A3019 RMK AO2 SLP222 T01780128 $
KESF 160553Z AUTO 04005KT 10SM OVC085 18/12 A3021 RMK AO2 SLP227 T01830117 10261 20183 403330178 51009 $
KESF 160453Z AUTO 02007KT 330V050 10SM FEW040 BKN090 OVC110 18/13 A3021 RMK AO2 SLP226 T01830133 $
KESF 160353Z AUTO 02008G17KT 340V070 10SM OVC036 19/14 A3021 RMK AO2 SLP227 T01890139 $
KESF 160320Z AUTO VRB06G17KT 10SM SCT019 OVC032 19/14 A3020 RMK AO2 T01940144 $
KESF 160253Z AUTO 36008G16KT 320V040 10SM BKN018 OVC028 20/17 A3018 RMK AO2 SLP218 T02000167 51022 $
KESF 160153Z AUTO 36010G19KT 320V030 10SM OVC015 21/18 A3016 RMK AO2 SLP210 T02110178 $
KESF 160151Z AUTO 36011G19KT 300V030 10SM OVC015 21/18 A3016 RMK AO2 $
KESF 160053Z AUTO 34008G19KT 10SM OVC011 23/21 A3011 RMK AO2 SLP195 T02280206 $
KESF 160046Z AUTO 35010G19KT 10SM OVC013 23/21 A3011 RMK AO2 T02330211 $
KESF 160008Z AUTO 36007G18KT 320V070 10SM BKN019 BKN100 26/22 A3007 RMK AO2 T02560222 $
KESF 152353Z AUTO 35011G18KT 10SM SCT021 SCT047 BKN100 26/22 A3007 RMK AO2 SLP180 T02610222 10333 20261 53021 $
KESF 152253Z AUTO 35003KT 10SM CLR 29/22 A3003 RMK AO2 SLP166 T02940217 $
KESF 152153Z AUTO VRB03KT 10SM CLR 32/21 A3001 RMK AO2 SLP160 T03170211 $